Time;durP1;ratioP1;P1;durP2;ratioP2;P2;SDS_P1;SDS_P2;PMS_P1;PMS_P2;Temp;Humidity;BMP_temperature;BMP_pressure;BME280_temperature;BME280_humidity;BME280_pressure;Samples;Min_cycle;Max_cycle;Signal;HPM_P1;HPM_P2
2021/12/10 00:01:38;;;;;;;189.53;19.50;;;;;;;-141.66;100.00;58987.19;5073182;28;20055;-65
2021/12/10 00:04:07;;;;;;;173.00;23.57;;;;;;;-141.66;100.00;58987.19;5073091;28;20131;-64
2021/12/10 00:06:37;;;;;;;279.43;33.10;;;;;;;-141.66;100.00;58987.19;5073066;28;20044;-64
2021/12/10 00:09:07;;;;;;;310.47;37.13;;;;;;;-141.66;100.00;58987.19;5073086;28;20043;-64
2021/12/10 00:11:38;;;;;;;195.40;23.60;;;;;;;-141.66;100.00;58987.19;5073139;28;20047;-63
2021/12/10 00:14:07;;;;;;;231.27;27.00;;;;;;;-141.66;100.00;58987.19;5073071;28;20394;-63
2021/12/10 00:16:37;;;;;;;272.30;32.33;;;;;;;-141.66;100.00;58987.19;5073035;28;20040;-64
2021/12/10 00:19:18;;;;;;;247.57;28.37;;;;;;;-141.66;100.00;58987.19;5072770;28;20048;-65
2021/12/10 00:21:45;;;;;;;312.33;33.20;;;;;;;-141.66;100.00;58987.19;5072683;28;20037;-65
2021/12/10 00:24:12;;;;;;;444.17;51.80;;;;;;;-141.66;100.00;58987.19;5073062;28;20064;-64
2021/12/10 00:26:40;;;;;;;524.30;64.60;;;;;;;-141.66;100.00;58987.19;5073139;28;20052;-63
2021/12/10 00:29:07;;;;;;;227.23;22.53;;;;;;;-141.66;100.00;58987.19;5071928;28;20071;-64
2021/12/10 00:31:47;;;;;;;114.67;17.60;;;;;;;-141.66;100.00;58987.19;5073102;28;20044;-64
2021/12/10 00:34:19;;;;;;;370.53;37.27;;;;;;;-141.66;100.00;58987.19;5072809;28;20064;-65
2021/12/10 00:36:47;;;;;;;220.57;24.50;;;;;;;-141.66;100.00;58987.19;5070942;28;20132;-65
2021/12/10 00:39:20;;;;;;;363.03;41.57;;;;;;;-141.66;100.00;58987.19;5071563;28;20060;-65
2021/12/10 00:41:47;;;;;;;107.20;20.10;;;;;;;-141.66;100.00;58987.19;5072609;28;20044;-65
2021/12/10 00:44:14;;;;;;;36.37;12.13;;;;;;;-141.66;100.00;58987.19;5072496;28;20222;-65
2021/12/10 00:46:44;;;;;;;48.90;15.50;;;;;;;-141.66;100.00;58987.19;5072741;28;20036;-65
2021/12/10 00:49:11;;;;;;;42.33;16.30;;;;;;;-141.66;100.00;58987.19;5071286;28;20068;-63
2021/12/10 00:51:39;;;;;;;63.17;16.63;;;;;;;-141.66;100.00;58987.19;5072919;28;20041;-65
2021/12/10 00:54:08;;;;;;;81.27;20.90;;;;;;;-141.66;100.00;58987.19;5071588;28;20106;-64
2021/12/10 00:56:35;;;;;;;106.20;20.77;;;;;;;-141.66;100.00;58987.19;5074936;28;20094;-65
2021/12/10 00:59:03;;;;;;;84.70;16.13;;;;;;;-141.66;100.00;58987.19;5076059;28;20075;-64
2021/12/10 01:01:33;;;;;;;225.30;31.63;;;;;;;-141.66;100.00;58987.19;5076792;28;20217;-64
2021/12/10 01:04:07;;;;;;;160.73;26.13;;;;;;;-141.66;100.00;58987.19;5076830;28;20041;-64
2021/12/10 01:06:34;;;;;;;93.73;18.97;;;;;;;-141.66;100.00;58987.19;5076656;28;20045;-64
2021/12/10 01:09:09;;;;;;;264.00;37.87;;;;;;;-141.66;100.00;58987.19;5055585;28;20450;-64
2021/12/10 01:12:00;;;;;;;394.07;48.33;;;;;;;-141.66;100.00;58987.19;5070638;28;20055;-63
2021/12/10 01:14:39;;;;;;;376.10;45.90;;;;;;;-141.66;100.00;58987.19;5069826;28;20126;-64
2021/12/10 01:25:33;;;;;;;198.13;25.43;;;;;;;-141.66;100.00;58987.19;5074996;28;20502;-64
2021/12/10 01:28:01;;;;;;;122.77;22.50;;;;;;;-141.66;100.00;58987.19;5076199;28;20062;-63
2021/12/10 01:30:33;;;;;;;198.13;29.30;;;;;;;-141.66;100.00;58987.19;5076347;28;20469;-63
2021/12/10 01:33:04;;;;;;;78.37;17.57;;;;;;;-141.66;100.00;58987.19;5076146;28;20509;-63
2021/12/10 01:35:36;;;;;;;86.57;17.17;;;;;;;-141.66;100.00;58987.19;5076197;28;20048;-65
2021/12/10 01:38:05;;;;;;;96.43;19.97;;;;;;;-141.66;100.00;58987.19;5074657;28;20052;-64
2021/12/10 01:40:35;;;;;;;141.20;24.30;;;;;;;-141.66;100.00;58987.19;5074806;28;20102;-64
2021/12/10 01:43:07;;;;;;;127.37;24.17;;;;;;;-141.66;100.00;58987.19;5076043;28;20045;-65
2021/12/10 01:45:45;;;;;;;87.27;19.40;;;;;;;-141.66;100.00;58987.19;5075871;28;20493;-64
2021/12/10 01:48:17;;;;;;;79.37;20.77;;;;;;;-141.66;100.00;58987.19;5075920;28;20033;-65
2021/12/10 01:50:47;;;;;;;118.43;24.90;;;;;;;-141.66;100.00;58987.19;5070956;28;20163;-64
2021/12/10 01:53:16;;;;;;;79.20;15.90;;;;;;;-141.66;100.00;58987.19;5075785;28;20060;-64
2021/12/10 01:55:46;;;;;;;95.50;18.63;;;;;;;-141.66;100.00;58987.19;5075731;28;20058;-64
2021/12/10 01:58:17;;;;;;;87.33;18.47;;;;;;;-141.66;100.00;58987.19;5075681;28;20083;-64
2021/12/10 02:00:48;;;;;;;66.87;15.07;;;;;;;-141.66;100.00;58987.19;5075475;28;20049;-64
2021/12/10 02:03:16;;;;;;;63.17;17.80;;;;;;;-141.66;100.00;58987.19;5075370;28;20070;-64
2021/12/10 02:05:43;;;;;;;45.50;13.30;;;;;;;-141.66;100.00;58987.19;5075255;28;20131;-64
2021/12/10 02:08:12;;;;;;;60.13;17.27;;;;;;;-141.66;100.00;58987.19;5074600;28;20079;-64
2021/12/10 02:10:39;;;;;;;61.23;18.80;;;;;;;-141.66;100.00;58987.19;5075375;28;20044;-65
2021/12/10 02:13:06;;;;;;;53.03;14.63;;;;;;;-141.66;100.00;58987.19;5075346;28;20041;-65
2021/12/10 02:15:33;;;;;;;61.57;18.40;;;;;;;-141.66;100.00;58987.19;5075366;28;20480;-64
2021/12/10 02:18:01;;;;;;;46.07;15.63;;;;;;;-141.66;100.00;58987.19;5075230;28;20048;-64
2021/12/10 02:20:32;;;;;;;75.47;22.87;;;;;;;-141.66;100.00;58987.19;5075403;28;20481;-64
2021/12/10 02:23:04;;;;;;;72.20;19.30;;;;;;;-141.66;100.00;58987.19;5074932;28;20139;-65
2021/12/10 02:25:36;;;;;;;74.20;20.97;;;;;;;-141.66;100.00;58987.19;5075162;28;20047;-65
2021/12/10 02:28:06;;;;;;;65.17;19.43;;;;;;;-141.66;100.00;58987.19;5075045;28;20045;-65
2021/12/10 02:30:33;;;;;;;71.97;18.93;;;;;;;-141.66;100.00;58987.19;5075082;28;20064;-63
2021/12/10 02:33:00;;;;;;;86.87;20.63;;;;;;;-141.66;100.00;58987.19;5074952;28;20048;-64
2021/12/10 02:35:28;;;;;;;113.03;24.23;;;;;;;-141.66;100.00;58987.19;5074863;28;20044;-64
2021/12/10 02:37:56;;;;;;;68.63;17.77;;;;;;;-141.66;100.00;58987.19;5074647;28;20536;-64
2021/12/10 02:40:27;;;;;;;124.90;26.73;;;;;;;-141.66;100.00;58987.19;5074850;28;20086;-63
2021/12/10 02:42:56;;;;;;;113.57;25.33;;;;;;;-141.66;100.00;58987.19;5074824;28;20086;-65
2021/12/10 02:45:25;;;;;;;107.17;23.23;;;;;;;-141.66;100.00;58987.19;5075032;28;20362;-65
2021/12/10 02:47:53;;;;;;;121.83;22.20;;;;;;;-141.66;100.00;58987.19;5074720;28;20564;-64
2021/12/10 02:50:24;;;;;;;92.07;21.23;;;;;;;-141.66;100.00;58987.19;5074623;28;20037;-64
2021/12/10 02:52:51;;;;;;;124.03;23.10;;;;;;;-141.66;100.00;58987.19;5073147;28;20045;-64
2021/12/10 02:55:20;;;;;;;164.57;27.73;;;;;;;-141.66;100.00;58987.19;5074267;28;20067;-65
2021/12/10 02:57:52;;;;;;;135.63;22.83;;;;;;;-141.66;100.00;58987.19;5074287;28;20044;-63
2021/12/10 03:00:24;;;;;;;151.70;25.47;;;;;;;-141.66;100.00;58987.19;5073915;28;20131;-64
2021/12/10 03:02:51;;;;;;;131.57;22.60;;;;;;;-141.66;100.00;58987.19;5074261;28;20045;-65
2021/12/10 03:05:18;;;;;;;296.10;38.63;;;;;;;-141.66;100.00;58987.19;5073934;28;20067;-65
2021/12/10 03:07:47;;;;;;;182.97;26.57;;;;;;;-141.66;100.00;58987.19;5073991;28;20047;-65
2021/12/10 03:10:18;;;;;;;215.87;31.03;;;;;;;-141.66;100.00;58987.19;5074030;28;20545;-65
2021/12/10 03:12:46;;;;;;;204.13;27.23;;;;;;;-141.66;100.00;58987.19;5073965;28;20098;-64
2021/12/10 03:15:17;;;;;;;89.97;18.17;;;;;;;-141.66;100.00;58987.19;5074018;28;20123;-65
2021/12/10 03:18:21;;;;;;;100.97;20.20;;;;;;;-141.66;100.00;58987.19;5073447;28;20052;-64
2021/12/10 03:20:49;;;;;;;98.82;21.90;;;;;;;-141.66;100.00;58987.19;5074171;28;20119;-64
2021/12/10 03:23:18;;;;;;;106.30;21.10;;;;;;;-141.66;100.00;58987.19;5073870;28;20075;-64
2021/12/10 03:25:45;;;;;;;84.33;17.70;;;;;;;-141.66;100.00;58987.19;5061332;28;20044;-64
2021/12/10 03:28:13;;;;;;;113.27;22.33;;;;;;;-141.66;100.00;58987.19;5073012;28;20057;-64
2021/12/10 03:30:47;;;;;;;188.23;28.03;;;;;;;-141.66;100.00;58987.19;5073715;28;20079;-64
2021/12/10 03:33:15;;;;;;;150.80;26.07;;;;;;;-141.66;100.00;58987.19;5069670;28;20477;-63
2021/12/10 03:35:46;;;;;;;181.73;26.37;;;;;;;-141.66;100.00;58987.19;5071151;28;20489;-63
2021/12/10 03:38:16;;;;;;;521.73;67.77;;;;;;;-141.66;100.00;58987.19;5072091;28;20093;-62
2021/12/10 03:40:43;;;;;;;261.70;33.33;;;;;;;-141.66;100.00;58987.19;5071991;28;20497;-63
2021/12/10 03:43:22;;;;;;;283.43;37.10;;;;;;;-141.66;100.00;58987.19;5072102;28;20390;-62
2021/12/10 03:46:41;;;;;;;316.77;36.93;;;;;;;-141.66;100.00;58987.19;5070565;28;20397;-61
2021/12/10 03:49:09;;;;;;;500.07;63.33;;;;;;;-141.66;100.00;58987.19;5069920;28;20036;-62
2021/12/10 03:51:38;;;;;;;315.50;38.93;;;;;;;-141.66;100.00;58987.19;5070160;28;20047;-62
2021/12/10 03:54:07;;;;;;;449.67;48.37;;;;;;;-141.66;100.00;58987.19;5069802;28;20147;-62
2021/12/10 03:56:36;;;;;;;221.80;29.10;;;;;;;-141.66;100.00;58987.19;5071121;28;20046;-63
2021/12/10 03:59:11;;;;;;;111.77;16.07;;;;;;;-141.66;100.00;58987.19;5070864;28;20036;-63
2021/12/10 04:01:43;;;;;;;359.37;41.93;;;;;;;-141.66;100.00;58987.19;5070259;28;20048;-63
2021/12/10 04:04:15;;;;;;;503.20;57.40;;;;;;;-141.66;100.00;58987.19;5069930;28;20436;-64
2021/12/10 04:06:43;;;;;;;237.48;30.17;;;;;;;-141.66;100.00;58987.19;5069233;28;20040;-62
2021/12/10 04:09:10;;;;;;;233.90;27.27;;;;;;;-141.66;100.00;58987.19;5070633;28;20451;-62
2021/12/10 04:11:38;;;;;;;387.13;46.30;;;;;;;-141.66;100.00;58987.19;5070456;28;20041;-62
2021/12/10 04:14:06;;;;;;;509.37;53.17;;;;;;;-141.66;100.00;58987.19;5070370;28;20094;-62
2021/12/10 04:16:34;;;;;;;403.00;45.43;;;;;;;-141.66;100.00;58987.19;5070437;28;20032;-63
2021/12/10 04:19:05;;;;;;;342.53;41.87;;;;;;;-141.66;100.00;58987.19;5068849;28;20072;-63
2021/12/10 04:21:39;;;;;;;385.03;43.40;;;;;;;-141.66;100.00;58987.19;5070150;28;20048;-63
2021/12/10 04:24:06;;;;;;;;;;;;;;;-141.66;100.00;58987.19;5071029;28;20040;-63
2021/12/10 04:26:33;;;;;;;432.13;48.67;;;;;;;-141.66;100.00;58987.19;5070671;28;19921;-63
2021/12/10 04:29:00;;;;;;;254.13;32.40;;;;;;;-141.66;100.00;58987.19;5069687;28;20127;-63
2021/12/10 04:31:27;;;;;;;230.37;30.37;;;;;;;-141.66;100.00;58987.19;5070362;28;20432;-64
2021/12/10 04:33:54;;;;;;;431.83;49.53;;;;;;;-141.66;100.00;58987.19;5070779;28;20044;-62
2021/12/10 04:36:22;;;;;;;327.10;40.03;;;;;;;-141.66;100.00;58987.19;5070376;28;20037;-64
2021/12/10 04:38:49;;;;;;;268.03;32.10;;;;;;;-141.66;100.00;58987.19;5070511;28;20135;-64
2021/12/10 04:41:16;;;;;;;217.17;30.40;;;;;;;-141.66;100.00;58987.19;5070071;28;20064;-62
2021/12/10 04:43:47;;;;;;;295.70;36.17;;;;;;;-141.66;100.00;58987.19;5070053;28;20394;-63
2021/12/10 04:46:15;;;;;;;181.30;25.40;;;;;;;-141.66;100.00;58987.19;5070573;28;20061;-63
2021/12/10 04:48:49;;;;;;;464.23;52.57;;;;;;;-141.66;100.00;58987.19;5068332;28;20040;-63
2021/12/10 04:51:17;;;;;;;142.53;23.97;;;;;;;-141.66;100.00;58987.19;5069739;28;20040;-63
2021/12/10 04:53:45;;;;;;;203.67;28.70;;;;;;;-141.66;100.00;58987.19;5071118;28;20063;-64
2021/12/10 04:56:12;;;;;;;295.73;37.93;;;;;;;-141.66;100.00;58987.19;5069545;28;20048;-63
2021/12/10 04:58:40;;;;;;;298.90;38.23;;;;;;;-141.66;100.00;58987.19;5069329;28;20040;-63
2021/12/10 05:01:07;;;;;;;259.57;33.03;;;;;;;-141.66;100.00;58987.19;5068844;28;20044;-62
2021/12/10 05:03:34;;;;;;;228.23;29.50;;;;;;;-141.66;100.00;58987.19;5069068;28;20045;-63
2021/12/10 05:06:03;;;;;;;283.57;36.67;;;;;;;-141.66;100.00;58987.19;5068935;28;20044;-63
2021/12/10 05:08:32;;;;;;;397.57;43.47;;;;;;;-141.66;100.00;58987.19;5069673;28;20464;-65
2021/12/10 05:11:02;;;;;;;346.37;41.67;;;;;;;-141.66;100.00;58987.19;5069662;28;20033;-65
2021/12/10 05:13:30;;;;;;;167.17;21.80;;;;;;;-141.66;100.00;58987.19;5068156;28;20051;-64
2021/12/10 05:15:59;;;;;;;265.97;33.83;;;;;;;-141.66;100.00;58987.19;5069495;28;20132;-65
2021/12/10 05:18:28;;;;;;;272.67;33.17;;;;;;;-141.66;100.00;58987.19;5069344;28;20052;-65
2021/12/10 05:20:56;;;;;;;349.70;39.87;;;;;;;-141.66;100.00;58987.19;5069406;28;20466;-65
2021/12/10 05:23:23;;;;;;;407.53;46.03;;;;;;;-141.66;100.00;58987.19;5068755;28;20053;-64
2021/12/10 05:25:51;;;;;;;481.90;52.17;;;;;;;-141.66;100.00;58987.19;5070168;28;20044;-64
2021/12/10 05:28:20;;;;;;;358.27;43.50;;;;;;;-141.66;100.00;58987.19;5068690;28;20052;-64
2021/12/10 05:30:48;;;;;;;366.17;42.17;;;;;;;-141.66;100.00;58987.19;5068820;28;20044;-64
2021/12/10 05:33:18;;;;;;;179.37;23.63;;;;;;;-141.66;100.00;58987.19;5068785;28;20093;-64
2021/12/10 05:35:47;;;;;;;490.40;57.07;;;;;;;-141.66;100.00;58987.19;5068016;28;20359;-64
2021/12/10 05:38:17;;;;;;;341.67;43.30;;;;;;;-141.66;100.00;58987.19;5068833;28;20126;-64
2021/12/10 05:40:45;;;;;;;225.77;27.73;;;;;;;-141.66;100.00;58987.19;5069092;28;20037;-63
2021/12/10 05:43:12;;;;;;;357.37;42.57;;;;;;;-141.66;100.00;58987.19;5070257;28;20040;-64
2021/12/10 05:45:40;;;;;;;323.07;40.00;;;;;;;-141.66;100.00;58987.19;5070927;28;20405;-63
2021/12/10 05:48:08;;;;;;;345.57;39.03;;;;;;;-141.66;100.00;58987.19;5072127;28;20120;-63
2021/12/10 05:50:36;;;;;;;193.80;21.83;;;;;;;-141.66;100.00;58987.19;5072282;28;20045;-63
2021/12/10 05:53:03;;;;;;;489.07;54.23;;;;;;;-141.66;100.00;58987.19;5072132;28;20131;-63
2021/12/10 05:55:30;;;;;;;159.13;26.00;;;;;;;-141.66;100.00;58987.19;5071888;28;20048;-63
2021/12/10 05:57:57;;;;;;;398.67;72.63;;;;;;;-141.66;100.00;58987.19;5072557;28;20043;-63
2021/12/10 06:00:29;;;;;;;294.73;36.33;;;;;;;-141.66;100.00;58987.19;5073862;28;20049;-64
2021/12/10 06:02:57;;;;;;;494.20;50.43;;;;;;;-141.66;100.00;58987.19;5072645;28;20043;-64
2021/12/10 06:05:27;;;;;;;453.17;50.63;;;;;;;-141.66;100.00;58987.19;5071686;28;20111;-63
2021/12/10 06:07:54;;;;;;;244.43;33.13;;;;;;;-141.66;100.00;58987.19;5069994;28;20119;-64
2021/12/10 06:10:23;;;;;;;269.13;31.57;;;;;;;-141.66;100.00;58987.19;5072005;28;20163;-63
2021/12/10 06:12:52;;;;;;;307.70;38.73;;;;;;;-141.66;100.00;58987.19;5072088;28;20519;-63
2021/12/10 06:15:21;;;;;;;326.47;34.10;;;;;;;-141.66;100.00;58987.19;5070570;28;20135;-64
2021/12/10 06:17:49;;;;;;;276.53;28.30;;;;;;;-141.66;100.00;58987.19;5071832;28;20201;-64
2021/12/10 06:20:24;;;;;;;345.10;36.47;;;;;;;-141.66;100.00;58987.19;5071926;28;20032;-63
2021/12/10 06:22:51;;;;;;;404.40;40.30;;;;;;;-141.66;100.00;58987.19;5071623;28;20048;-63
2021/12/10 06:25:18;;;;;;;468.37;49.87;;;;;;;-141.66;100.00;58987.19;5071749;28;20049;-63
2021/12/10 06:27:45;;;;;;;322.90;38.47;;;;;;;-141.66;100.00;58987.19;5071235;28;20489;-63
2021/12/10 06:30:14;;;;;;;476.73;48.50;;;;;;;-141.66;100.00;58987.19;5071317;28;20040;-63
2021/12/10 06:32:42;;;;;;;330.50;37.17;;;;;;;-141.66;100.00;58987.19;5071289;28;20059;-63
2021/12/10 06:35:09;;;;;;;340.40;39.57;;;;;;;-141.66;100.00;58987.19;5071132;28;20078;-63
2021/12/10 06:37:39;;;;;;;322.97;37.10;;;;;;;-141.66;100.00;58987.19;5071580;28;20037;-63
2021/12/10 06:42:56;;;;;;;411.40;45.13;;;;;;;-141.66;100.00;58987.19;5066602;28;20127;-62
2021/12/10 06:45:26;;;;;;;295.30;31.57;;;;;;;-141.66;100.00;58987.19;5071367;28;20047;-63
2021/12/10 06:47:55;;;;;;;260.33;29.13;;;;;;;-141.66;100.00;58987.19;5072098;28;20044;-63
2021/12/10 06:50:25;;;;;;;109.50;14.33;;;;;;;-141.66;100.00;58987.19;5070754;28;20049;-63
2021/12/10 06:52:57;;;;;;;307.63;36.67;;;;;;;-141.66;100.00;58987.19;5071748;28;20048;-63
2021/12/10 06:55:24;;;;;;;152.87;19.50;;;;;;;-141.66;100.00;58987.19;5070554;28;20058;-62
2021/12/10 06:57:51;;;;;;;408.40;43.10;;;;;;;-141.66;100.00;58987.19;5071728;28;20040;-62
2021/12/10 07:00:22;;;;;;;389.27;37.27;;;;;;;-141.66;100.00;58987.19;5071977;28;20040;-63
2021/12/10 07:02:50;;;;;;;112.23;15.50;;;;;;;-141.66;100.00;58987.19;5069606;28;20040;-63
2021/12/10 07:05:17;;;;;;;279.97;28.03;;;;;;;-141.66;100.00;58987.19;5071013;28;20401;-63
2021/12/10 07:07:46;;;;;;;477.73;42.90;;;;;;;-141.66;100.00;58987.19;5071769;28;20040;-63
2021/12/10 07:10:17;;;;;;;439.67;40.53;;;;;;;-141.66;100.00;58987.19;5072348;28;20070;-64
2021/12/10 07:12:46;;;;;;;469.10;44.33;;;;;;;-141.66;100.00;58987.19;5072079;28;20830;-62
2021/12/10 07:15:16;;;;;;;391.37;59.90;;;;;;;-141.66;100.00;58987.19;5069987;28;20040;-62
2021/12/10 07:17:45;;;;;;;517.97;48.60;;;;;;;-141.66;100.00;58987.19;5070297;28;20063;-61
2021/12/10 07:20:15;;;;;;;344.77;34.87;;;;;;;-141.66;100.00;58987.19;5071456;28;20446;-62
2021/12/10 07:22:43;;;;;;;251.70;30.43;;;;;;;-141.66;100.00;58987.19;5070663;28;20051;-62
2021/12/10 07:25:10;;;;;;;325.77;35.77;;;;;;;-141.66;100.00;58987.19;5071266;28;20375;-68
2021/12/10 07:27:39;;;;;;;364.47;36.47;;;;;;;-141.66;100.00;58987.19;5072002;28;20036;-64
2021/12/10 07:30:08;;;;;;;335.73;33.53;;;;;;;-141.66;100.00;58987.19;5072182;28;20058;-65
2021/12/10 07:32:35;;;;;;;458.27;43.17;;;;;;;-141.66;100.00;58987.19;5071714;28;20045;-64
2021/12/10 07:35:05;;;;;;;448.57;51.67;;;;;;;-141.66;100.00;58987.19;5070820;28;20041;-64
2021/12/10 07:37:33;;;;;;;391.03;38.47;;;;;;;-141.66;100.00;58987.19;5070095;28;20102;-64
2021/12/10 07:40:00;;;;;;;448.77;43.23;;;;;;;-141.66;100.00;58987.19;5070712;28;20044;-63
2021/12/10 07:42:27;;;;;;;461.93;45.13;;;;;;;-141.66;100.00;58987.19;5070969;28;20037;-63
2021/12/10 07:44:56;;;;;;;483.47;52.03;;;;;;;-141.66;100.00;58987.19;5069821;28;20505;-71
2021/12/10 07:47:24;;;;;;;372.47;38.90;;;;;;;-141.66;100.00;58987.19;5070034;28;20041;-61
2021/12/10 07:49:51;;;;;;;444.87;45.73;;;;;;;-141.66;100.00;58987.19;5070117;28;20143;-62
2021/12/10 07:52:22;;;;;;;362.17;38.60;;;;;;;-141.66;100.00;58987.19;5068327;28;20151;-63
2021/12/10 07:54:49;;;;;;;352.57;41.30;;;;;;;-141.66;100.00;58987.19;5068565;28;20097;-62
2021/12/10 07:57:18;;;;;;;401.00;41.60;;;;;;;-141.66;100.00;58987.19;5069176;28;20119;-62
2021/12/10 07:59:46;;;;;;;273.37;33.97;;;;;;;-141.66;100.00;58987.19;5069150;28;20052;-62
2021/12/10 08:02:14;;;;;;;319.87;38.20;;;;;;;-141.66;100.00;58987.19;5068292;28;20100;-62
2021/12/10 08:04:42;;;;;;;331.07;33.83;;;;;;;-141.66;100.00;58987.19;5068862;28;20041;-61
2021/12/10 08:07:10;;;;;;;325.43;36.20;;;;;;;-141.66;100.00;58987.19;5068843;28;20075;-62
2021/12/10 08:09:37;;;;;;;285.90;32.50;;;;;;;-141.66;100.00;58987.19;5069499;28;20123;-62
2021/12/10 08:12:05;;;;;;;372.53;43.60;;;;;;;-141.66;100.00;58987.19;5070010;28;20412;-66
2021/12/10 08:14:32;;;;;;;317.37;39.33;;;;;;;-141.66;100.00;58987.19;5070016;28;20165;-69
2021/12/10 08:16:59;;;;;;;371.20;36.30;;;;;;;-141.66;100.00;58987.19;5064915;28;20061;-62
2021/12/10 08:19:27;;;;;;;419.53;41.67;;;;;;;-141.66;100.00;58987.19;5068510;28;20505;-63
2021/12/10 08:21:55;;;;;;;347.77;38.80;;;;;;;-141.66;100.00;58987.19;5068906;28;20094;-63
2021/12/10 08:24:23;;;;;;;317.43;34.43;;;;;;;-141.66;100.00;58987.19;5068030;28;20044;-63
2021/12/10 08:26:52;;;;;;;369.10;38.77;;;;;;;-141.66;100.00;58987.19;5069817;28;20041;-64
2021/12/10 08:29:20;;;;;;;311.37;34.47;;;;;;;-141.66;100.00;58987.19;5069506;28;20044;-64
2021/12/10 08:31:47;;;;;;;378.17;39.60;;;;;;;-141.66;100.00;58987.19;5069836;28;20166;-63
2021/12/10 08:34:15;;;;;;;158.17;24.93;;;;;;;-141.66;100.00;58987.19;5066933;28;20409;-64
2021/12/10 08:36:43;;;;;;;405.03;44.47;;;;;;;-141.66;100.00;58987.19;5070075;28;20589;-63
2021/12/10 08:39:12;;;;;;;586.80;54.63;;;;;;;-141.66;100.00;58987.19;5065181;28;20075;-63
2021/12/10 08:41:39;;;;;;;339.47;37.90;;;;;;;-141.66;100.00;58987.19;5068060;28;20118;-63
2021/12/10 08:44:07;;;;;;;291.20;35.43;;;;;;;-141.66;100.00;58987.19;5068111;28;20109;-63
2021/12/10 08:46:35;;;;;;;212.43;25.53;;;;;;;-141.66;100.00;58987.19;5067872;28;20067;-63
2021/12/10 08:49:02;;;;;;;346.13;38.33;;;;;;;-141.66;100.00;58987.19;5069753;28;20064;-63
2021/12/10 08:51:33;;;;;;;403.60;41.97;;;;;;;-141.66;100.00;58987.19;5070150;28;20045;-64
2021/12/10 08:54:01;;;;;;;475.37;45.23;;;;;;;-141.66;100.00;58987.19;5066984;28;20086;-64
2021/12/10 08:56:29;;;;;;;214.80;27.93;;;;;;;-141.66;100.00;58987.19;5068062;28;20497;-64
2021/12/10 08:58:58;;;;;;;348.83;37.20;;;;;;;-141.66;100.00;58987.19;5069657;28;20090;-65
2021/12/10 09:01:29;;;;;;;583.87;58.10;;;;;;;-141.66;100.00;58987.19;5070057;28;20064;-65
2021/12/10 09:03:59;;;;;;;399.20;90.80;;;;;;;-141.66;100.00;58987.19;5068809;28;20067;-64
2021/12/10 09:06:30;;;;;;;249.67;55.67;;;;;;;-141.66;100.00;58987.19;5071272;28;20132;-64
2021/12/10 09:08:58;;;;;;;200.70;27.20;;;;;;;-141.66;100.00;58987.19;5070063;28;20117;-65
2021/12/10 09:11:27;;;;;;;166.13;24.73;;;;;;;-141.66;100.00;58987.19;5068238;28;20048;-64
2021/12/10 09:13:55;;;;;;;266.13;33.23;;;;;;;-141.66;100.00;58987.19;5068821;28;20052;-64
2021/12/10 09:16:27;;;;;;;287.73;36.43;;;;;;;-141.66;100.00;58987.19;5068447;28;20434;-64
2021/12/10 09:19:00;;;;;;;526.97;60.00;;;;;;;-141.66;100.00;58987.19;5070816;28;20045;-65
2021/12/10 09:21:28;;;;;;;361.98;37.20;;;;;;;-141.66;100.00;58987.19;5072519;28;20049;-64
2021/12/10 09:24:01;;;;;;;295.57;30.87;;;;;;;-141.66;100.00;58987.19;5072931;28;20051;-64
2021/12/10 09:26:29;;;;;;;402.57;43.77;;;;;;;-141.66;100.00;58987.19;5073162;28;20062;-64
2021/12/10 09:28:59;;;;;;;306.30;36.23;;;;;;;-141.66;100.00;58987.19;5072535;28;20115;-65
2021/12/10 09:31:26;;;;;;;695.43;61.07;;;;;;;-141.66;100.00;58987.19;5071205;28;20056;-63
2021/12/10 09:34:14;;;;;;;634.40;70.70;;;;;;;-141.66;100.00;58987.19;5070055;28;20047;-64
2021/12/10 09:36:43;;;;;;;403.77;43.23;;;;;;;-141.66;100.00;58987.19;5070384;28;20044;-64
2021/12/10 09:39:49;;;;;;;237.47;30.73;;;;;;;-141.66;100.00;58987.19;5027641;28;20059;-63
2021/12/10 09:42:20;;;;;;;454.67;43.17;;;;;;;-141.66;100.00;58987.19;5020480;28;20132;-64
2021/12/10 09:44:48;;;;;;;353.87;39.17;;;;;;;-141.66;100.00;58987.19;5054332;28;20048;-64
2021/12/10 09:47:15;;;;;;;187.40;28.50;;;;;;;-141.66;100.00;58987.19;5072295;28;20709;-63
2021/12/10 09:55:54;;;;;;;354.50;43.33;;;;;;;2.37;100.00;96488.72;5085640;27;20359;-63
2021/12/10 09:58:22;;;;;;;232.03;32.07;;;;;;;2.40;100.00;96477.34;5086930;28;20036;-63
2021/12/10 10:00:52;;;;;;;174.03;28.57;;;;;;;2.60;100.00;96461.53;5085898;28;20052;-63
2021/12/10 10:03:23;;;;;;;506.63;48.33;;;;;;;2.79;100.00;96449.19;5086633;28;20128;-63
2021/12/10 10:05:50;;;;;;;500.47;44.37;;;;;;;3.00;100.00;96448.84;5086938;28;20048;-63
2021/12/10 10:08:20;;;;;;;313.20;35.10;;;;;;;2.90;100.00;96452.88;5086730;28;20032;-63
2021/12/10 10:10:50;;;;;;;624.97;54.40;;;;;;;2.91;100.00;96461.50;5086311;28;20044;-63
2021/12/10 10:13:20;;;;;;;375.30;43.30;;;;;;;2.46;100.00;96457.09;5087200;28;20036;-63
2021/12/10 10:16:08;;;;;;;202.13;30.10;;;;;;;3.10;100.00;96443.97;5086064;28;20492;-59
2021/12/10 10:18:38;;;;;;;417.23;45.93;;;;;;;2.53;100.00;96440.28;5086294;28;20063;-63
2021/12/10 10:21:10;;;;;;;154.83;27.37;;;;;;;2.70;100.00;96426.38;5084825;28;20169;-71
2021/12/10 10:23:41;;;;;;;724.07;67.87;;;;;;;2.82;100.00;96428.28;5085718;28;20044;-66
2021/12/10 10:26:12;;;;;;;246.43;32.83;;;;;;;2.90;100.00;96426.09;5085485;28;20290;-66
2021/12/10 10:28:41;;;;;;;261.60;34.77;;;;;;;2.93;100.00;96423.34;5084743;28;20070;-70
2021/12/10 10:31:12;;;;;;;607.13;80.00;;;;;;;2.76;100.00;96408.72;5084370;28;20041;-64
2021/12/10 10:33:40;;;;;;;532.67;60.33;;;;;;;2.93;100.00;96405.16;5084779;28;20143;-65
2021/12/10 10:36:16;;;;;;;316.77;34.43;;;;;;;3.41;100.00;96403.16;5083593;28;20075;-66
2021/12/10 10:38:47;;;;;;;515.00;96.57;;;;;;;3.68;100.00;96395.50;5084006;28;20051;-67
2021/12/10 10:41:17;;;;;;;294.43;29.57;;;;;;;3.94;100.00;96381.78;5083345;28;20043;-68
2021/12/10 10:43:48;;;;;;;459.70;44.90;;;;;;;4.41;100.00;96380.50;5085510;28;20036;-67
2021/12/10 10:46:15;;;;;;;442.40;40.17;;;;;;;4.42;100.00;96386.53;5084909;28;20045;-65
2021/12/10 10:48:44;;;;;;;205.33;26.90;;;;;;;3.76;100.00;96388.91;5083848;28;20160;-67
2021/12/10 10:51:16;;;;;;;362.03;35.67;;;;;;;3.58;100.00;96390.00;5084946;28;20535;-67
2021/12/10 10:53:46;;;;;;;534.87;50.40;;;;;;;3.56;100.00;96391.03;5085243;28;20098;-66
2021/12/10 10:56:16;;;;;;;350.80;35.23;;;;;;;3.23;100.00;96393.88;5084858;28;20045;-68
2021/12/10 10:58:49;;;;;;;129.13;22.13;;;;;;;3.44;100.00;96386.56;5083502;28;20501;-68
2021/12/10 11:01:24;;;;;;;97.63;19.95;;;;;;;3.54;100.00;96387.69;5083606;28;20107;-69
2021/12/10 11:03:58;;;;;;;636.47;55.07;;;;;;;3.38;100.00;96394.72;5084756;28;20127;-69
2021/12/10 11:06:30;;;;;;;324.03;29.20;;;;;;;3.65;100.00;96388.72;5073245;28;20493;-69
2021/12/10 11:09:10;;;;;;;234.13;25.93;;;;;;;3.45;100.00;96386.47;5071192;28;20063;-68
2021/12/10 11:11:41;;;;;;;278.53;32.07;;;;;;;3.90;100.00;96378.50;5071268;28;20063;-68
2021/12/10 11:14:12;;;;;;;105.73;19.10;;;;;;;2.66;100.00;96391.19;5070394;28;20040;-69
2021/12/10 11:16:42;;;;;;;345.50;35.07;;;;;;;2.74;100.00;96400.22;5070413;28;20053;-70
2021/12/10 11:19:11;;;;;;;311.27;29.70;;;;;;;2.77;100.00;96399.19;5071637;28;20144;-69
2021/12/10 11:21:45;;;;;;;362.10;35.93;;;;;;;2.37;100.00;96387.63;5070107;28;20119;-71